• Join FlightAware (Why Join?)
  • Login
  • US Flag 
06:25AM EDT


 

Airport Tracker/Info


-or-


 

Live Flight TrackerFlight Track Log ✈ FLG4262 ✈ 22-Sep-2013 ✈ KBGM - KDTW

Flight Track Log - Related Links

Times and Time Zones

All times are in EDT time to prevent confusion due to time zone crossing. See the FLG4262 flight status page for this flight to view local times or setup timezone preferences in your user account.

Time Position Orientation Groundspeed Altitude Reporting Facility
EDT Latitude Longitude Course Direction KTS MPH feet Rate Location/Type
05:44PM 42.2539 -76.0908 286° West 176 203 5,500  Level New York Center
05:45PM 42.2792 -76.1769 292° West 209 241 7,800 2,160 Climbing New York Center
05:46PM 42.2240 -76.4906 287° West  Level Estimated
05:46PM 42.3042 -76.2689 290° West 246 283 9,900  Level New York Center
05:47PM 42.2275 -76.6184 294° West  Level Estimated
05:48PM 42.2309 -76.7462 289° West  Level Estimated
05:48PM 42.3539 -76.4375 292° West 305 351 12,600  Level Cleveland Center
05:49PM 42.2898 -76.8464 309° West  Level FlightAware Approximate
05:49PM 42.3828 -76.5492 289° West 314 361 13,900  Level Cleveland Center
05:50PM 42.4153 -76.6642 291° West 328 377 15,400 1,440 Climbing Cleveland Center
05:51PM 42.4461 -76.7792 290° West 326 375 17,000 1,380 Climbing Cleveland Center
05:52PM 42.4758 -76.8944 289° West 326 375 18,300 1,080 Climbing Cleveland Center
05:53PM 42.5092 -77.0133 291° West 334 384 19,300 1,020 Climbing Cleveland Center
05:54PM 42.5475 -77.1592 290° West 341 392 20,500 1,020 Climbing Cleveland Center
05:55PM 42.5794 -77.2819 289° West 344 396 21,500 960 Climbing Cleveland Center
05:56PM 42.6131 -77.4086 290° West 352 405 22,500 960 Climbing Cleveland Center
05:57PM 42.6447 -77.5314 289° West 350 403 23,500 720 Climbing Cleveland Center
05:58PM 42.6592 -77.6664 278° West 362 417 24,000 240 Climbing Cleveland Center
05:59PM 42.6675 -77.8256 274° West 384 442 24,000  Level Cleveland Center
06:00PM 42.6750 -77.9725 274° West 391 450 24,000  Level Cleveland Center
06:01PM 42.6817 -78.1203 274° West 395 455 24,000  Level Cleveland Center
06:02PM 42.6908 -78.3003 274° West 399 459 24,000  Level Cleveland Center
06:03PM 42.6967 -78.4511 273° West 400 460 24,000  Level Cleveland Center
06:04PM 42.7050 -78.6039 274° West 406 467 24,000  Level Cleveland Center
06:06PM 42.7114 -78.7544 273° West 400 460 24,000  Level Cleveland Center
06:07PM 42.7178 -78.9067 273° West 404 465 24,000  Level Cleveland Center
06:08PM 42.7239 -79.0592 273° West 402 463 24,000  Level Cleveland Center
06:09PM 42.7308 -79.2431 273° West 406 467 24,000  Level Cleveland Center
06:10PM 42.7361 -79.3958 273° West 406 467 24,000  Level Cleveland Center
06:11PM 42.7417 -79.5508 273° West 410 472 24,000  Level Cleveland Center
06:12PM 42.7464 -79.7039 272° West 407 468 24,000  Level Cleveland Center
06:13PM 42.7506 -79.8594 272° West 412 474 24,000  Level Cleveland Center
06:14PM 42.7428 -80.0369 267° West 417 480 24,000  Level Cleveland Center
06:15PM 42.7361 -80.1947 267° West 417 480 24,000  Level Cleveland Center
06:16PM 42.7294 -80.3519 267° West 416 479 24,000  Level Cleveland Center
06:17PM 42.7217 -80.5103 266° West 415 478 24,000  Level Cleveland Center
06:18PM 42.7150 -80.6686 267° West 417 480 24,000  Level Cleveland Center
06:19PM 42.7078 -80.8567 267° West 426 490 24,000  Level Cleveland Center
06:20PM 42.6914 -81.0122 262° West 418 481 24,000  Level Cleveland Center
06:21PM 42.6728 -81.1719 261° West 422 486 24,000  Level Cleveland Center
06:22PM 42.6553 -81.3303 262° West 422 486 24,000  Level Cleveland Center
06:23PM 42.6358 -81.4883 261° West 423 487 24,000 -840 Level Cleveland Center
06:24PM 42.6183 -81.6447 261° West 419 482 22,300 -1,500 Descending Cleveland Center
06:25PM 42.6006 -81.7911 261° West 367 422 20,900 -1,260 Descending Cleveland Center
06:26PM 42.5861 -81.9083 261° West 326 375 19,700 -1,260 Descending Cleveland Center
06:27PM 42.5725 -82.0144 260° West 295 339 18,400 -1,200 Descending Cleveland Center
06:28PM 42.5606 -82.1147 261° West 274 315 17,300 -1,500 Descending Cleveland Center
06:29PM 42.5486 -82.2275 262° West 257 296 15,400 -1,620 Descending Cleveland Center
06:30PM 42.5994 -82.2969 315° West 264 304 14,000 -720 Descending Cleveland Center
06:31PM 42.6533 -82.2361 40° Northeast 294 338 14,000 -120 Level Cleveland Center
06:32PM 42.5903 -82.1603 138° Southeast 333 383 13,800 -720 Descending Cleveland Center
06:33PM 42.5289 -82.2436 225° Southwest 298 343 12,700 -1,080 Descending Cleveland Center
06:33PM 42.5267 -82.2347 109° East 313 360 12,700 -1,020 Level Cleveland Center
06:34PM 42.5242 -82.2828 266° West 285 328 12,300 -720 Descending Cleveland Center
06:34PM 42.5197 -82.3439 264° West 293 337 12,000 -300 Descending Cleveland Center
06:35PM 42.5186 -82.3922 268° West 290 334 12,000  Level Cleveland Center
06:36PM 42.5111 -82.4756 263° West 292 336 12,000  Level Cleveland Center
06:36PM 42.5103 -82.5100 268° West 294 338 12,000  Level Cleveland Center
06:37PM 42.4931 -82.5828 252° West 299 344 12,000  Level Cleveland Center
06:37PM 42.4839 -82.6169 250° West 302 348 12,000  Level Cleveland Center
06:38PM 42.4575 -82.6839 242° Southwest 301 346 12,000  Level Cleveland Center
06:38PM 42.4503 -82.7086 248° West 254 292 12,000  Level Cleveland Center
06:39PM 42.4272 -82.7675 242° Southwest 258 297 12,000  Level Cleveland Center
06:39PM 42.4192 -82.7922 246° West 242 278 12,000  Level Cleveland Center
06:40PM 42.3992 -82.8453 243° Southwest 237 273 12,000  Level Cleveland Center
06:40PM 42.3900 -82.8761 248° West 226 260 12,000  Level Cleveland Center
06:41PM 42.3719 -82.9214 242° Southwest 229 264 12,000  Level Cleveland Center
06:41PM 42.3633 -82.9514 249° West 228 262 12,000  Level Cleveland Center
06:42PM 42.3392 -83.0136 242° Southwest 227 261 12,000  Level Cleveland Center
06:42PM 42.3344 -83.0294 248° West 228 262 12,000  Level Cleveland Center
06:43PM 42.3303 -83.1136 266° West 215 247 12,000  Level Cleveland Center
06:44PM 42.3250 -83.1744 263° West 221 254 12,000  Level Cleveland Center
06:44PM 42.3119 -83.1900 221° Southwest 239 275 12,000 -600 Level Cleveland Center
06:45PM 42.2653 -83.2122 199° South 237 273 11,400 -840 Descending Cleveland Center
06:45PM 42.2506 -83.2239 210° Southwest 239 275 11,200 -1,020 Descending Cleveland Center
06:46PM 42.2033 -83.2456 199° South 239 275 10,400 -1,140 Descending Cleveland Center
06:46PM 42.1897 -83.2550 207° Southwest 233 268 10,100 -1,500 Descending Cleveland Center
06:47PM 42.1244 -83.2853 199° South 237 273 8,700 -1,200 Descending Cleveland Center
06:48PM 42.0686 -83.3075 196° South 235 270 7,800 -1,140 Descending Cleveland Center
06:48PM 42.0636 -83.3133 221° Southwest 227 261 7,600 -720 Descending Cleveland Center
06:49PM 42.0031 -83.3386 197° South 217 250 7,000 -720 Descending Cleveland Center
06:50PM 41.9542 -83.3586 197° South 216 249 6,200 -1,020 Descending Cleveland Center
06:50PM 41.9486 -83.3644 218° Southwest 211 243 6,000 -1,560 Descending Cleveland Center
06:51PM 41.9500 -83.4278 272° West 211 243 4,600 -1,380 Descending Cleveland Center
06:51PM 41.9533 -83.4356 300° West 211 243 4,600 -300 Level Cleveland Center
06:52PM 42.0067 -83.4514 348° North 194 223 4,300 -360 Descending Cleveland Center
06:53PM 42.0508 -83.4503 North 188 216 3,900 -660 Descending Cleveland Center
06:54PM 42.0931 -83.4250 24° Northeast 172 198 3,000 -960 Descending Cleveland Center
06:55PM 42.1414 -83.3917 27° Northeast 155 178 2,000 -1,020 Descending Cleveland Center
06:55PM 42.1411 -83.3900 103° East 168 193 2,000 -900 Level Cleveland Center
06:56PM 42.1769 -83.3658 27° Northeast 139 160 1,100 -900 Descending Cleveland Center
06:56PM 42.1753 -83.3644 148° Southeast 155 178 1,100 -300 Level Cleveland Center
06:57PM 42.2078 -83.3422 27° Northeast 149 171 800 -300 Descending Cleveland Center